sensor_id;sensor_type;location;lat;lon;timestamp;temperature;humidity
21318;DHT22;10818;50.830;6.524;2023-12-22T00:02:56;7.20;99.90
21318;DHT22;10818;50.830;6.524;2023-12-22T00:07:56;7.30;99.90
21318;DHT22;10818;50.830;6.524;2023-12-22T00:12:57;7.50;99.90
21318;DHT22;10818;50.830;6.524;2023-12-22T00:17:58;7.50;99.90
21318;DHT22;10818;50.830;6.524;2023-12-22T00:22:58;7.10;99.90
21318;DHT22;10818;50.830;6.524;2023-12-22T00:27:58;6.80;99.90
21318;DHT22;10818;50.830;6.524;2023-12-22T00:32:59;6.80;99.90
21318;DHT22;10818;50.830;6.524;2023-12-22T00:37:59;6.80;99.90
21318;DHT22;10818;50.830;6.524;2023-12-22T00:43:00;7.00;99.90
21318;DHT22;10818;50.830;6.524;2023-12-22T00:48:00;7.00;99.90
21318;DHT22;10818;50.830;6.524;2023-12-22T00:53:01;7.00;99.90
21318;DHT22;10818;50.830;6.524;2023-12-22T00:58:01;6.70;99.90
21318;DHT22;10818;50.830;6.524;2023-12-22T01:03:02;6.90;99.90
21318;DHT22;10818;50.830;6.524;2023-12-22T01:08:03;6.90;99.90
21318;DHT22;10818;50.830;6.524;2023-12-22T01:13:03;7.10;99.90
21318;DHT22;10818;50.830;6.524;2023-12-22T01:18:04;7.30;99.90
21318;DHT22;10818;50.830;6.524;2023-12-22T01:23:05;7.30;99.90
21318;DHT22;10818;50.830;6.524;2023-12-22T01:28:05;7.40;99.90
21318;DHT22;10818;50.830;6.524;2023-12-22T01:33:06;7.60;99.90
21318;DHT22;10818;50.830;6.524;2023-12-22T01:38:06;7.60;99.90
21318;DHT22;10818;50.830;6.524;2023-12-22T01:43:07;7.80;99.90
21318;DHT22;10818;50.830;6.524;2023-12-22T01:48:07;7.80;99.90
21318;DHT22;10818;50.830;6.524;2023-12-22T01:53:08;7.90;99.90
21318;DHT22;10818;50.830;6.524;2023-12-22T01:58:08;7.90;99.90
21318;DHT22;10818;50.830;6.524;2023-12-22T02:03:10;8.00;99.90
21318;DHT22;10818;50.830;6.524;2023-12-22T02:08:11;7.90;99.90
21318;DHT22;10818;50.830;6.524;2023-12-22T02:13:11;7.80;99.90
21318;DHT22;10818;50.830;6.524;2023-12-22T02:18:15;7.70;99.90
21318;DHT22;10818;50.830;6.524;2023-12-22T02:23:16;7.50;99.90
21318;DHT22;10818;50.830;6.524;2023-12-22T02:28:17;7.50;99.90
21318;DHT22;10818;50.830;6.524;2023-12-22T02:33:19;7.50;99.90
21318;DHT22;10818;50.830;6.524;2023-12-22T02:38:22;7.40;99.90
21318;DHT22;10818;50.830;6.524;2023-12-22T02:43:23;7.40;99.90
21318;DHT22;10818;50.830;6.524;2023-12-22T02:48:24;7.30;99.90
21318;DHT22;10818;50.830;6.524;2023-12-22T02:53:24;7.30;99.90
21318;DHT22;10818;50.830;6.524;2023-12-22T02:58:25;7.50;99.90
21318;DHT22;10818;50.830;6.524;2023-12-22T03:03:25;7.80;99.90
21318;DHT22;10818;50.830;6.524;2023-12-22T03:08:26;7.80;99.90
21318;DHT22;10818;50.830;6.524;2023-12-22T03:13:26;7.90;99.90
21318;DHT22;10818;50.830;6.524;2023-12-22T03:18:27;7.90;99.90
21318;DHT22;10818;50.830;6.524;2023-12-22T03:23:27;8.00;99.90
21318;DHT22;10818;50.830;6.524;2023-12-22T03:28:28;8.10;99.90
21318;DHT22;10818;50.830;6.524;2023-12-22T03:33:28;8.10;99.90
21318;DHT22;10818;50.830;6.524;2023-12-22T03:38:29;8.20;99.90
21318;DHT22;10818;50.830;6.524;2023-12-22T03:43:29;7.80;99.90
21318;DHT22;10818;50.830;6.524;2023-12-22T03:48:31;7.40;99.90
21318;DHT22;10818;50.830;6.524;2023-12-22T03:53:32;7.10;99.90
21318;DHT22;10818;50.830;6.524;2023-12-22T03:58:32;6.80;99.90
21318;DHT22;10818;50.830;6.524;2023-12-22T04:03:33;6.90;99.90
21318;DHT22;10818;50.830;6.524;2023-12-22T04:08:34;6.90;99.90
21318;DHT22;10818;50.830;6.524;2023-12-22T04:13:34;7.00;99.90
21318;DHT22;10818;50.830;6.524;2023-12-22T04:18:34;7.30;99.90
21318;DHT22;10818;50.830;6.524;2023-12-22T04:23:35;7.40;99.90
21318;DHT22;10818;50.830;6.524;2023-12-22T04:28:36;7.60;99.90
21318;DHT22;10818;50.830;6.524;2023-12-22T04:33:37;7.80;99.90
21318;DHT22;10818;50.830;6.524;2023-12-22T04:38:37;7.90;99.90
21318;DHT22;10818;50.830;6.524;2023-12-22T04:43:38;7.90;99.90
21318;DHT22;10818;50.830;6.524;2023-12-22T04:48:38;8.00;99.90
21318;DHT22;10818;50.830;6.524;2023-12-22T04:53:39;8.10;99.90
21318;DHT22;10818;50.830;6.524;2023-12-22T04:58:40;7.90;99.90
21318;DHT22;10818;50.830;6.524;2023-12-22T05:03:40;8.00;99.90
21318;DHT22;10818;50.830;6.524;2023-12-22T05:08:41;8.10;99.90
21318;DHT22;10818;50.830;6.524;2023-12-22T05:13:41;8.20;99.90
21318;DHT22;10818;50.830;6.524;2023-12-22T05:18:43;8.30;99.90
21318;DHT22;10818;50.830;6.524;2023-12-22T05:23:43;8.40;99.90
21318;DHT22;10818;50.830;6.524;2023-12-22T05:28:44;8.40;99.90
21318;DHT22;10818;50.830;6.524;2023-12-22T05:33:44;8.50;99.90
21318;DHT22;10818;50.830;6.524;2023-12-22T05:38:45;8.50;99.90
21318;DHT22;10818;50.830;6.524;2023-12-22T05:43:47;8.60;99.90
21318;DHT22;10818;50.830;6.524;2023-12-22T05:48:47;8.70;99.90
21318;DHT22;10818;50.830;6.524;2023-12-22T05:53:48;8.70;99.90
21318;DHT22;10818;50.830;6.524;2023-12-22T05:58:49;8.80;99.90
21318;DHT22;10818;50.830;6.524;2023-12-22T06:03:50;8.80;99.90
21318;DHT22;10818;50.830;6.524;2023-12-22T06:08:51;8.80;99.90
21318;DHT22;10818;50.830;6.524;2023-12-22T06:13:51;8.80;99.90
21318;DHT22;10818;50.830;6.524;2023-12-22T06:18:52;8.70;99.90
21318;DHT22;10818;50.830;6.524;2023-12-22T06:23:52;8.50;99.90
21318;DHT22;10818;50.830;6.524;2023-12-22T06:28:53;8.30;99.90
21318;DHT22;10818;50.830;6.524;2023-12-22T06:33:53;8.30;99.90
21318;DHT22;10818;50.830;6.524;2023-12-22T06:38:54;8.20;99.90
21318;DHT22;10818;50.830;6.524;2023-12-22T06:43:58;8.00;99.90
21318;DHT22;10818;50.830;6.524;2023-12-22T06:49:00;7.50;99.90
21318;DHT22;10818;50.830;6.524;2023-12-22T06:54:00;7.20;99.90
21318;DHT22;10818;50.830;6.524;2023-12-22T06:59:01;7.50;99.90
21318;DHT22;10818;50.830;6.524;2023-12-22T07:04:02;7.80;99.90
21318;DHT22;10818;50.830;6.524;2023-12-22T07:14:09;8.10;99.90
21318;DHT22;10818;50.830;6.524;2023-12-22T07:19:10;8.30;99.90
21318;DHT22;10818;50.830;6.524;2023-12-22T07:24:13;8.40;99.90
21318;DHT22;10818;50.830;6.524;2023-12-22T07:29:13;8.50;99.90
21318;DHT22;10818;50.830;6.524;2023-12-22T07:34:14;8.60;99.90
21318;DHT22;10818;50.830;6.524;2023-12-22T07:39:15;8.70;99.90
21318;DHT22;10818;50.830;6.524;2023-12-22T07:44:16;8.70;99.90
21318;DHT22;10818;50.830;6.524;2023-12-22T07:49:16;8.60;99.90
21318;DHT22;10818;50.830;6.524;2023-12-22T07:54:17;8.70;99.90
21318;DHT22;10818;50.830;6.524;2023-12-22T07:59:17;8.70;99.90
21318;DHT22;10818;50.830;6.524;2023-12-22T08:04:18;8.70;99.90
21318;DHT22;10818;50.830;6.524;2023-12-22T08:09:18;8.70;99.90
21318;DHT22;10818;50.830;6.524;2023-12-22T08:14:19;8.80;99.90
21318;DHT22;10818;50.830;6.524;2023-12-22T08:19:19;8.90;99.90
21318;DHT22;10818;50.830;6.524;2023-12-22T08:24:21;8.90;99.90
21318;DHT22;10818;50.830;6.524;2023-12-22T08:29:21;8.90;99.90
21318;DHT22;10818;50.830;6.524;2023-12-22T08:34:22;9.00;99.90
21318;DHT22;10818;50.830;6.524;2023-12-22T08:39:22;9.00;99.90
21318;DHT22;10818;50.830;6.524;2023-12-22T08:44:27;9.10;99.90
21318;DHT22;10818;50.830;6.524;2023-12-22T08:49:28;9.20;99.90
21318;DHT22;10818;50.830;6.524;2023-12-22T08:54:28;9.20;99.90
21318;DHT22;10818;50.830;6.524;2023-12-22T08:59:28;9.20;99.90
21318;DHT22;10818;50.830;6.524;2023-12-22T09:04:29;9.30;99.90
21318;DHT22;10818;50.830;6.524;2023-12-22T09:09:29;9.40;99.90
21318;DHT22;10818;50.830;6.524;2023-12-22T09:14:30;9.40;99.90
21318;DHT22;10818;50.830;6.524;2023-12-22T09:19:33;9.40;99.90
21318;DHT22;10818;50.830;6.524;2023-12-22T09:24:34;9.50;99.90
21318;DHT22;10818;50.830;6.524;2023-12-22T09:29:35;9.60;99.90
21318;DHT22;10818;50.830;6.524;2023-12-22T09:34:36;9.60;99.90
21318;DHT22;10818;50.830;6.524;2023-12-22T09:39:37;9.80;99.90
21318;DHT22;10818;50.830;6.524;2023-12-22T09:44:37;9.70;99.90
21318;DHT22;10818;50.830;6.524;2023-12-22T09:49:39;9.80;99.90
21318;DHT22;10818;50.830;6.524;2023-12-22T09:54:41;9.70;99.90
21318;DHT22;10818;50.830;6.524;2023-12-22T09:59:41;9.80;99.90
21318;DHT22;10818;50.830;6.524;2023-12-22T10:04:42;9.70;99.90
21318;DHT22;10818;50.830;6.524;2023-12-22T10:09:42;9.60;99.90
21318;DHT22;10818;50.830;6.524;2023-12-22T10:14:43;9.70;99.90
21318;DHT22;10818;50.830;6.524;2023-12-22T10:19:43;9.60;99.90
21318;DHT22;10818;50.830;6.524;2023-12-22T10:24:45;9.60;99.90
21318;DHT22;10818;50.830;6.524;2023-12-22T10:29:53;9.80;99.90
21318;DHT22;10818;50.830;6.524;2023-12-22T10:34:55;9.90;99.90
21318;DHT22;10818;50.830;6.524;2023-12-22T10:39:57;9.70;99.90
21318;DHT22;10818;50.830;6.524;2023-12-22T10:44:57;9.60;99.90
21318;DHT22;10818;50.830;6.524;2023-12-22T10:50:01;9.70;99.90
21318;DHT22;10818;50.830;6.524;2023-12-22T10:55:02;9.80;99.90
21318;DHT22;10818;50.830;6.524;2023-12-22T11:00:03;9.80;99.90
21318;DHT22;10818;50.830;6.524;2023-12-22T11:05:04;9.90;99.90
21318;DHT22;10818;50.830;6.524;2023-12-22T11:10:06;10.10;99.90
21318;DHT22;10818;50.830;6.524;2023-12-22T11:15:07;10.20;99.90
21318;DHT22;10818;50.830;6.524;2023-12-22T11:20:09;10.50;99.90
21318;DHT22;10818;50.830;6.524;2023-12-22T11:25:10;10.50;99.90
21318;DHT22;10818;50.830;6.524;2023-12-22T11:30:10;10.50;99.90
21318;DHT22;10818;50.830;6.524;2023-12-22T11:35:11;10.60;99.90
21318;DHT22;10818;50.830;6.524;2023-12-22T11:40:13;10.70;99.90
21318;DHT22;10818;50.830;6.524;2023-12-22T11:45:14;10.70;99.90
21318;DHT22;10818;50.830;6.524;2023-12-22T11:50:28;10.80;99.90
21318;DHT22;10818;50.830;6.524;2023-12-22T11:55:55;10.90;99.90
21318;DHT22;10818;50.830;6.524;2023-12-22T12:00:53;10.80;99.90
21318;DHT22;10818;50.830;6.524;2023-12-22T12:06:09;10.90;99.90
21318;DHT22;10818;50.830;6.524;2023-12-22T12:11:10;11.00;99.90
21318;DHT22;10818;50.830;6.524;2023-12-22T12:16:15;11.00;99.90
21318;DHT22;10818;50.830;6.524;2023-12-22T12:21:16;11.10;99.90
21318;DHT22;10818;50.830;6.524;2023-12-22T12:26:24;11.20;99.90
21318;DHT22;10818;50.830;6.524;2023-12-22T12:31:35;11.10;99.90
21318;DHT22;10818;50.830;6.524;2023-12-22T12:36:36;11.20;99.90
21318;DHT22;10818;50.830;6.524;2023-12-22T12:41:42;11.20;99.90
21318;DHT22;10818;50.830;6.524;2023-12-22T12:46:44;11.20;99.90
21318;DHT22;10818;50.830;6.524;2023-12-22T12:51:46;11.20;99.90
21318;DHT22;10818;50.830;6.524;2023-12-22T12:56:46;11.20;99.90
21318;DHT22;10818;50.830;6.524;2023-12-22T13:01:47;11.20;99.90
21318;DHT22;10818;50.830;6.524;2023-12-22T13:06:48;11.30;99.90
21318;DHT22;10818;50.830;6.524;2023-12-22T13:11:49;11.30;99.90
21318;DHT22;10818;50.830;6.524;2023-12-22T13:16:50;11.20;99.90
21318;DHT22;10818;50.830;6.524;2023-12-22T13:21:50;10.90;99.90
21318;DHT22;10818;50.830;6.524;2023-12-22T13:27:01;11.00;99.90
21318;DHT22;10818;50.830;6.524;2023-12-22T13:32:02;11.10;99.90
21318;DHT22;10818;50.830;6.524;2023-12-22T13:37:03;11.10;99.90
21318;DHT22;10818;50.830;6.524;2023-12-22T13:42:04;11.10;99.90
21318;DHT22;10818;50.830;6.524;2023-12-22T13:47:04;11.10;99.90
21318;DHT22;10818;50.830;6.524;2023-12-22T13:52:05;11.10;99.90
21318;DHT22;10818;50.830;6.524;2023-12-22T13:57:18;10.90;99.90
21318;DHT22;10818;50.830;6.524;2023-12-22T14:02:22;11.10;99.90
21318;DHT22;10818;50.830;6.524;2023-12-22T14:07:23;11.10;99.90
21318;DHT22;10818;50.830;6.524;2023-12-22T14:12:23;11.10;99.90
21318;DHT22;10818;50.830;6.524;2023-12-22T14:17:23;11.20;99.90
21318;DHT22;10818;50.830;6.524;2023-12-22T14:22:24;11.00;99.90
21318;DHT22;10818;50.830;6.524;2023-12-22T14:27:25;10.80;99.90
21318;DHT22;10818;50.830;6.524;2023-12-22T14:32:25;10.70;99.90
21318;DHT22;10818;50.830;6.524;2023-12-22T14:37:26;10.60;99.90
21318;DHT22;10818;50.830;6.524;2023-12-22T14:42:26;10.70;99.90
21318;DHT22;10818;50.830;6.524;2023-12-22T14:47:26;10.60;99.90
21318;DHT22;10818;50.830;6.524;2023-12-22T14:52:27;10.60;99.90
21318;DHT22;10818;50.830;6.524;2023-12-22T14:57:27;10.90;99.90
21318;DHT22;10818;50.830;6.524;2023-12-22T15:02:31;10.60;99.90
21318;DHT22;10818;50.830;6.524;2023-12-22T15:07:31;10.60;99.90
21318;DHT22;10818;50.830;6.524;2023-12-22T15:12:32;10.40;99.90
21318;DHT22;10818;50.830;6.524;2023-12-22T15:17:36;10.30;99.90
21318;DHT22;10818;50.830;6.524;2023-12-22T15:22:36;10.40;99.90
21318;DHT22;10818;50.830;6.524;2023-12-22T15:27:37;10.40;99.90
21318;DHT22;10818;50.830;6.524;2023-12-22T15:32:39;10.40;99.90
21318;DHT22;10818;50.830;6.524;2023-12-22T15:37:39;10.60;99.90
21318;DHT22;10818;50.830;6.524;2023-12-22T15:42:41;10.40;99.90
21318;DHT22;10818;50.830;6.524;2023-12-22T15:47:41;10.40;99.90
21318;DHT22;10818;50.830;6.524;2023-12-22T15:52:42;10.40;99.90
21318;DHT22;10818;50.830;6.524;2023-12-22T15:57:42;10.30;99.90
21318;DHT22;10818;50.830;6.524;2023-12-22T16:02:45;10.40;99.90
21318;DHT22;10818;50.830;6.524;2023-12-22T16:07:45;10.30;99.90
21318;DHT22;10818;50.830;6.524;2023-12-22T16:12:46;10.50;99.90
21318;DHT22;10818;50.830;6.524;2023-12-22T16:17:46;10.50;99.90
21318;DHT22;10818;50.830;6.524;2023-12-22T16:22:46;10.40;99.90
21318;DHT22;10818;50.830;6.524;2023-12-22T16:27:49;10.30;99.90
21318;DHT22;10818;50.830;6.524;2023-12-22T16:32:49;10.30;99.90
21318;DHT22;10818;50.830;6.524;2023-12-22T16:37:49;10.40;99.90
21318;DHT22;10818;50.830;6.524;2023-12-22T16:42:50;10.40;99.90
21318;DHT22;10818;50.830;6.524;2023-12-22T16:47:51;10.30;99.90
21318;DHT22;10818;50.830;6.524;2023-12-22T16:52:51;10.30;99.90
21318;DHT22;10818;50.830;6.524;2023-12-22T16:57:52;10.40;99.90
21318;DHT22;10818;50.830;6.524;2023-12-22T17:02:55;10.40;99.90
21318;DHT22;10818;50.830;6.524;2023-12-22T17:07:55;10.40;99.90
21318;DHT22;10818;50.830;6.524;2023-12-22T17:12:56;10.40;99.90
21318;DHT22;10818;50.830;6.524;2023-12-22T17:17:56;10.40;99.90
21318;DHT22;10818;50.830;6.524;2023-12-22T17:22:57;10.40;99.90
21318;DHT22;10818;50.830;6.524;2023-12-22T17:27:57;10.50;99.90
21318;DHT22;10818;50.830;6.524;2023-12-22T17:32:57;10.40;99.90
21318;DHT22;10818;50.830;6.524;2023-12-22T17:37:58;10.30;99.90
21318;DHT22;10818;50.830;6.524;2023-12-22T17:42:59;10.40;99.90
21318;DHT22;10818;50.830;6.524;2023-12-22T17:48:00;10.40;99.90
21318;DHT22;10818;50.830;6.524;2023-12-22T17:53:00;10.30;99.90
21318;DHT22;10818;50.830;6.524;2023-12-22T17:58:01;10.40;99.90
21318;DHT22;10818;50.830;6.524;2023-12-22T18:03:01;10.50;99.90
21318;DHT22;10818;50.830;6.524;2023-12-22T18:08:02;10.60;99.90
21318;DHT22;10818;50.830;6.524;2023-12-22T18:13:03;10.60;99.90
21318;DHT22;10818;50.830;6.524;2023-12-22T18:18:03;10.50;99.90
21318;DHT22;10818;50.830;6.524;2023-12-22T18:23:04;10.60;99.90
21318;DHT22;10818;50.830;6.524;2023-12-22T18:28:04;10.60;99.90
21318;DHT22;10818;50.830;6.524;2023-12-22T18:33:05;10.70;99.90
21318;DHT22;10818;50.830;6.524;2023-12-22T18:38:06;10.70;99.90
21318;DHT22;10818;50.830;6.524;2023-12-22T18:43:06;10.60;99.90
21318;DHT22;10818;50.830;6.524;2023-12-22T18:48:07;10.70;99.90
21318;DHT22;10818;50.830;6.524;2023-12-22T18:53:08;10.70;99.90
21318;DHT22;10818;50.830;6.524;2023-12-22T18:58:09;10.80;99.90
21318;DHT22;10818;50.830;6.524;2023-12-22T19:03:09;10.70;99.90
21318;DHT22;10818;50.830;6.524;2023-12-22T19:08:09;10.70;99.90
21318;DHT22;10818;50.830;6.524;2023-12-22T19:13:10;10.90;99.90
21318;DHT22;10818;50.830;6.524;2023-12-22T19:18:10;10.80;99.90
21318;DHT22;10818;50.830;6.524;2023-12-22T19:23:11;10.80;99.90
21318;DHT22;10818;50.830;6.524;2023-12-22T19:28:11;10.90;99.90
21318;DHT22;10818;50.830;6.524;2023-12-22T19:33:12;11.00;99.90
21318;DHT22;10818;50.830;6.524;2023-12-22T19:38:12;10.90;99.90
21318;DHT22;10818;50.830;6.524;2023-12-22T19:43:14;10.90;99.90
21318;DHT22;10818;50.830;6.524;2023-12-22T19:48:14;10.80;99.90
21318;DHT22;10818;50.830;6.524;2023-12-22T19:53:15;10.60;99.90
21318;DHT22;10818;50.830;6.524;2023-12-22T19:58:16;10.70;99.90
21318;DHT22;10818;50.830;6.524;2023-12-22T20:03:18;10.70;99.90
21318;DHT22;10818;50.830;6.524;2023-12-22T20:08:18;10.80;99.90
21318;DHT22;10818;50.830;6.524;2023-12-22T20:13:19;10.90;99.90
21318;DHT22;10818;50.830;6.524;2023-12-22T20:18:19;11.00;99.90
21318;DHT22;10818;50.830;6.524;2023-12-22T20:23:20;10.80;99.90
21318;DHT22;10818;50.830;6.524;2023-12-22T20:28:22;10.70;99.90
21318;DHT22;10818;50.830;6.524;2023-12-22T20:33:22;10.50;99.90
21318;DHT22;10818;50.830;6.524;2023-12-22T20:38:23;10.50;99.90
21318;DHT22;10818;50.830;6.524;2023-12-22T20:43:23;10.60;99.90
21318;DHT22;10818;50.830;6.524;2023-12-22T20:48:24;10.70;99.90
21318;DHT22;10818;50.830;6.524;2023-12-22T20:53:25;10.60;99.90
21318;DHT22;10818;50.830;6.524;2023-12-22T20:58:26;10.40;99.90
21318;DHT22;10818;50.830;6.524;2023-12-22T21:03:26;10.50;99.90
21318;DHT22;10818;50.830;6.524;2023-12-22T21:08:27;10.50;99.90
21318;DHT22;10818;50.830;6.524;2023-12-22T21:13:27;10.60;99.90
21318;DHT22;10818;50.830;6.524;2023-12-22T21:18:27;10.70;99.90
21318;DHT22;10818;50.830;6.524;2023-12-22T21:23:28;10.70;99.90
21318;DHT22;10818;50.830;6.524;2023-12-22T21:28:29;10.60;99.90
21318;DHT22;10818;50.830;6.524;2023-12-22T21:33:30;10.50;99.90
21318;DHT22;10818;50.830;6.524;2023-12-22T21:38:30;10.60;99.90
21318;DHT22;10818;50.830;6.524;2023-12-22T21:43:31;10.70;99.90
21318;DHT22;10818;50.830;6.524;2023-12-22T21:48:32;10.70;99.90
21318;DHT22;10818;50.830;6.524;2023-12-22T21:53:32;10.70;99.90
21318;DHT22;10818;50.830;6.524;2023-12-22T21:58:33;10.70;99.90
21318;DHT22;10818;50.830;6.524;2023-12-22T22:03:35;10.70;99.90
21318;DHT22;10818;50.830;6.524;2023-12-22T22:08:36;10.90;99.90
21318;DHT22;10818;50.830;6.524;2023-12-22T22:13:37;10.70;99.90
21318;DHT22;10818;50.830;6.524;2023-12-22T22:18:37;10.80;99.90
21318;DHT22;10818;50.830;6.524;2023-12-22T22:23:37;10.90;99.90
21318;DHT22;10818;50.830;6.524;2023-12-22T22:28:38;10.80;99.90
21318;DHT22;10818;50.830;6.524;2023-12-22T22:33:39;10.60;99.90
21318;DHT22;10818;50.830;6.524;2023-12-22T22:38:41;10.70;99.90
21318;DHT22;10818;50.830;6.524;2023-12-22T22:43:42;10.70;99.90
21318;DHT22;10818;50.830;6.524;2023-12-22T22:48:42;10.50;99.90
21318;DHT22;10818;50.830;6.524;2023-12-22T22:53:43;10.20;99.90
21318;DHT22;10818;50.830;6.524;2023-12-22T22:58:43;9.70;99.90
21318;DHT22;10818;50.830;6.524;2023-12-22T23:03:44;9.40;99.90
21318;DHT22;10818;50.830;6.524;2023-12-22T23:08:44;9.10;99.90
21318;DHT22;10818;50.830;6.524;2023-12-22T23:13:45;8.90;99.90
21318;DHT22;10818;50.830;6.524;2023-12-22T23:18:45;8.80;99.90
21318;DHT22;10818;50.830;6.524;2023-12-22T23:23:45;8.70;99.90
21318;DHT22;10818;50.830;6.524;2023-12-22T23:28:46;8.70;99.90
21318;DHT22;10818;50.830;6.524;2023-12-22T23:33:46;8.70;99.90
21318;DHT22;10818;50.830;6.524;2023-12-22T23:38:47;8.90;99.90
21318;DHT22;10818;50.830;6.524;2023-12-22T23:43:48;8.80;99.90
21318;DHT22;10818;50.830;6.524;2023-12-22T23:48:48;8.80;99.90
21318;DHT22;10818;50.830;6.524;2023-12-22T23:53:49;8.70;99.90
21318;DHT22;10818;50.830;6.524;2023-12-22T23:58:49;8.50;99.90
